sensor_id;sensor_type;location;lat;lon;timestamp;pressure;altitude;pressure_sealevel;temperature;humidity
77360;BME280;66426;51.454;7.266;2023-04-01T14:38:00;98442.97;;;9.52;nan
77360;BME280;66426;51.454;7.266;2023-04-01T14:39:18;98437.13;;;9.58;nan
77360;BME280;66426;51.454;7.266;2023-04-01T14:40:27;98438.69;;;9.49;nan
77360;BME280;66426;51.454;7.266;2023-04-01T14:41:40;98439.53;;;9.50;nan
77360;BME280;66426;51.454;7.266;2023-04-01T14:42:59;98441.94;;;9.42;nan
77360;BME280;66426;51.454;7.266;2023-04-01T14:44:22;98441.38;;;9.49;nan
77360;BME280;66426;51.454;7.266;2023-04-01T14:45:44;98435.34;;;9.46;nan
77360;BME280;66426;51.454;7.266;2023-04-01T14:47:15;98443.78;;;9.41;nan
77360;BME280;66426;51.454;7.266;2023-04-01T14:48:25;98448.78;;;9.46;nan
77360;BME280;66426;51.454;7.266;2023-04-01T14:49:34;98439.53;;;9.50;nan
77360;BME280;66426;51.454;7.266;2023-04-01T14:50:42;98454.28;;;9.44;nan
77360;BME280;66426;51.454;7.266;2023-04-01T14:51:45;98451.19;;;9.38;nan
77360;BME280;66426;51.454;7.266;2023-04-01T14:52:55;98449.34;;;9.38;nan
77360;BME280;66426;51.454;7.266;2023-04-01T14:54:05;98446.78;;;9.37;nan
77360;BME280;66426;51.454;7.266;2023-04-01T14:55:21;98455.06;;;9.46;nan
77360;BME280;66426;51.454;7.266;2023-04-01T14:56:39;98454.84;;;9.37;nan
77360;BME280;66426;51.454;7.266;2023-04-01T14:57:41;98455.16;;;9.45;nan
77360;BME280;66426;51.454;7.266;2023-04-01T14:58:44;98460.28;;;9.48;nan
77360;BME280;66426;51.454;7.266;2023-04-01T14:59:48;98460.19;;;9.49;nan
77360;BME280;66426;51.454;7.266;2023-04-01T15:01:02;98461.31;;;9.58;nan
77360;BME280;66426;51.454;7.266;2023-04-01T15:02:18;98466.72;;;9.58;nan
77360;BME280;66426;51.454;7.266;2023-04-01T15:03:29;98456.69;;;9.60;nan
77360;BME280;66426;51.454;7.266;2023-04-01T15:04:43;98466.50;;;9.61;nan
77360;BME280;66426;51.454;7.266;2023-04-01T15:05:50;98462.41;;;9.56;nan
77360;BME280;66426;51.454;7.266;2023-04-01T15:07:21;98469.28;;;9.60;nan
77360;BME280;66426;51.454;7.266;2023-04-01T15:08:32;98464.63;;;9.75;nan
77360;BME280;66426;51.454;7.266;2023-04-01T15:09:41;98463.88;;;9.72;nan
77360;BME280;66426;51.454;7.266;2023-04-01T15:11:03;98470.00;;;9.75;nan
77360;BME280;66426;51.454;7.266;2023-04-01T15:12:18;98466.03;;;9.67;nan
77360;BME280;66426;51.454;7.266;2023-04-01T15:13:39;98467.78;;;9.68;nan
77360;BME280;66426;51.454;7.266;2023-04-01T15:14:51;98469.75;;;9.78;nan
77360;BME280;66426;51.454;7.266;2023-04-01T15:16:06;98473.78;;;9.72;nan
77360;BME280;66426;51.454;7.266;2023-04-01T15:17:27;98476.03;;;9.65;nan
77360;BME280;66426;51.454;7.266;2023-04-01T15:18:38;98479.06;;;9.61;nan
77360;BME280;66426;51.454;7.266;2023-04-01T15:19:54;98475.28;;;9.63;nan
77360;BME280;66426;51.454;7.266;2023-04-01T15:21:18;98486.47;;;9.70;nan
77360;BME280;66426;51.454;7.266;2023-04-01T15:22:34;98487.97;;;9.74;nan
77360;BME280;66426;51.454;7.266;2023-04-01T15:23:49;98484.00;;;9.67;nan
77360;BME280;66426;51.454;7.266;2023-04-01T15:25:05;98484.00;;;9.67;nan
77360;BME280;66426;51.454;7.266;2023-04-01T15:26:28;98490.56;;;9.63;nan
77360;BME280;66426;51.454;7.266;2023-04-01T15:27:38;98491.78;;;9.59;nan
77360;BME280;66426;51.454;7.266;2023-04-01T15:28:54;98495.56;;;9.56;nan
77360;BME280;66426;51.454;7.266;2023-04-01T15:30:17;98488.97;;;9.60;nan
77360;BME280;66426;51.454;7.266;2023-04-01T15:31:23;98495.91;;;9.52;nan
77360;BME280;66426;51.454;7.266;2023-04-01T15:32:31;98493.44;;;9.48;nan
77360;BME280;66426;51.454;7.266;2023-04-01T15:34:01;98501.66;;;9.58;nan
77360;BME280;66426;51.454;7.266;2023-04-01T15:35:17;98495.94;;;9.63;nan
77360;BME280;66426;51.454;7.266;2023-04-01T15:36:29;98499.38;;;9.65;nan
77360;BME280;66426;51.454;7.266;2023-04-01T15:37:37;98502.81;;;9.67;nan
77360;BME280;66426;51.454;7.266;2023-04-01T15:38:48;98502.94;;;9.65;nan
77360;BME280;66426;51.454;7.266;2023-04-01T15:39:54;98503.59;;;9.69;nan
77360;BME280;66426;51.454;7.266;2023-04-01T15:41:02;98502.06;;;9.65;nan
77360;BME280;66426;51.454;7.266;2023-04-01T15:42:18;98505.84;;;9.62;nan
77360;BME280;66426;51.454;7.266;2023-04-01T15:43:28;98503.13;;;9.75;nan
77360;BME280;66426;51.454;7.266;2023-04-01T15:44:46;98506.78;;;9.74;nan
77360;BME280;66426;51.454;7.266;2023-04-01T15:45:57;98512.72;;;9.66;nan
77360;BME280;66426;51.454;7.266;2023-04-01T15:47:01;98512.16;;;9.74;nan
77360;BME280;66426;51.454;7.266;2023-04-01T15:48:24;98515.19;;;9.69;nan
77360;BME280;66426;51.454;7.266;2023-04-01T15:49:34;98517.22;;;9.79;nan
77360;BME280;66426;51.454;7.266;2023-04-01T15:50:55;98514.66;;;9.64;nan
77360;BME280;66426;51.454;7.266;2023-04-01T15:52:14;98508.50;;;9.75;nan
77360;BME280;66426;51.454;7.266;2023-04-01T15:53:35;98509.47;;;9.74;nan
77360;BME280;66426;51.454;7.266;2023-04-01T15:54:57;98514.84;;;9.74;nan
77360;BME280;66426;51.454;7.266;2023-04-01T15:56:16;98513.88;;;9.75;nan
77360;BME280;66426;51.454;7.266;2023-04-01T15:57:26;98514.84;;;9.74;nan
77360;BME280;66426;51.454;7.266;2023-04-01T15:58:42;98521.09;;;9.75;nan
77360;BME280;66426;51.454;7.266;2023-04-01T15:59:57;98527.56;;;9.72;nan
77360;BME280;66426;51.454;7.266;2023-04-01T16:01:10;98528.69;;;9.57;nan
77360;BME280;66426;51.454;7.266;2023-04-01T16:02:21;98526.94;;;9.56;nan
77360;BME280;66426;51.454;7.266;2023-04-01T16:03:34;98527.47;;;9.61;nan
77360;BME280;66426;51.454;7.266;2023-04-01T16:04:51;98525.84;;;9.58;nan
77360;BME280;66426;51.454;7.266;2023-04-01T16:06:08;98529.00;;;9.52;nan
77360;BME280;66426;51.454;7.266;2023-04-01T16:07:21;98535.47;;;9.49;nan
77360;BME280;66426;51.454;7.266;2023-04-01T16:08:45;98536.84;;;9.55;nan
77360;BME280;66426;51.454;7.266;2023-04-01T16:09:59;98530.00;;;9.51;nan
77360;BME280;66426;51.454;7.266;2023-04-01T16:11:14;98538.91;;;9.52;nan
77360;BME280;66426;51.454;7.266;2023-04-01T16:12:29;98537.31;;;9.49;nan
77360;BME280;66426;51.454;7.266;2023-04-01T16:13:44;98543.28;;;9.53;nan
77360;BME280;66426;51.454;7.266;2023-04-01T16:14:55;98541.88;;;9.60;nan
77360;BME280;66426;51.454;7.266;2023-04-01T16:16:08;98538.69;;;9.55;nan
77360;BME280;66426;51.454;7.266;2023-04-01T16:18:50;98542.22;;;9.55;nan
77360;BME280;66426;51.454;7.266;2023-04-01T16:20:02;98542.34;;;9.54;nan
77360;BME280;66426;51.454;7.266;2023-04-01T16:21:12;98548.44;;;9.56;nan
77360;BME280;66426;51.454;7.266;2023-04-01T16:22:21;98543.44;;;9.51;nan
77360;BME280;66426;51.454;7.266;2023-04-01T16:23:26;98541.47;;;9.53;nan
77360;BME280;66426;51.454;7.266;2023-04-01T16:24:34;98548.34;;;9.57;nan
77360;BME280;66426;51.454;7.266;2023-04-01T16:25:40;98555.66;;;9.55;nan
77360;BME280;66426;51.454;7.266;2023-04-01T16:26:51;98552.13;;;9.55;nan
77360;BME280;66426;51.454;7.266;2023-04-01T16:28:02;98551.56;;;9.62;nan
77360;BME280;66426;51.454;7.266;2023-04-01T16:29:10;98552.56;;;9.48;nan
77360;BME280;66426;51.454;7.266;2023-04-01T16:30:26;98549.09;;;9.59;nan
77360;BME280;66426;51.454;7.266;2023-04-01T16:31:32;98557.03;;;9.61;nan
77360;BME280;66426;51.454;7.266;2023-04-01T16:32:41;98553.19;;;9.52;nan
77360;BME280;66426;51.454;7.266;2023-04-01T16:33:49;98555.88;;;9.52;nan
77360;BME280;66426;51.454;7.266;2023-04-01T16:35:01;98558.25;;;9.57;nan
77360;BME280;66426;51.454;7.266;2023-04-01T16:36:13;98560.59;;;9.61;nan
77360;BME280;66426;51.454;7.266;2023-04-01T16:37:21;98554.91;;;9.53;nan
77360;BME280;66426;51.454;7.266;2023-04-01T16:38:26;98556.88;;;9.51;nan
77360;BME280;66426;51.454;7.266;2023-04-01T16:39:37;98557.59;;;9.53;nan
77360;BME280;66426;51.454;7.266;2023-04-01T16:40:47;98571.03;;;9.53;nan
77360;BME280;66426;51.454;7.266;2023-04-01T16:42:07;98566.13;;;9.47;nan
77360;BME280;66426;51.454;7.266;2023-04-01T16:43:20;98570.41;;;9.49;nan
77360;BME280;66426;51.454;7.266;2023-04-01T16:44:26;98563.53;;;9.45;nan
77360;BME280;66426;51.454;7.266;2023-04-01T16:45:33;98567.28;;;9.43;nan
77360;BME280;66426;51.454;7.266;2023-04-01T16:46:39;98573.19;;;9.48;nan
77360;BME280;66426;51.454;7.266;2023-04-01T16:47:48;98577.94;;;9.44;nan
77360;BME280;66426;51.454;7.266;2023-04-01T16:48:58;98579.56;;;9.47;nan
77360;BME280;66426;51.454;7.266;2023-04-01T16:50:07;98577.28;;;9.41;nan
77360;BME280;66426;51.454;7.266;2023-04-01T16:51:15;98574.28;;;9.45;nan
77360;BME280;66426;51.454;7.266;2023-04-01T16:52:30;98577.28;;;9.54;nan
77360;BME280;66426;51.454;7.266;2023-04-01T16:53:41;98578.56;;;9.48;nan
77360;BME280;66426;51.454;7.266;2023-04-01T16:54:50;98580.19;;;9.50;nan
77360;BME280;66426;51.454;7.266;2023-04-01T16:55:56;98586.97;;;9.43;nan
77360;BME280;66426;51.454;7.266;2023-04-01T16:57:18;98586.63;;;9.48;nan
77360;BME280;66426;51.454;7.266;2023-04-01T16:58:24;98591.69;;;9.53;nan
77360;BME280;66426;51.454;7.266;2023-04-01T16:59:29;98586.63;;;9.48;nan
77360;BME280;66426;51.454;7.266;2023-04-01T17:00:37;98590.63;;;9.42;nan
77360;BME280;66426;51.454;7.266;2023-04-01T17:01:44;98588.38;;;9.49;nan
77360;BME280;66426;51.454;7.266;2023-04-01T17:02:52;98589.25;;;9.37;nan
77360;BME280;66426;51.454;7.266;2023-04-01T17:04:00;98595.91;;;9.44;nan
77360;BME280;66426;51.454;7.266;2023-04-01T17:05:09;98594.16;;;9.43;nan
77360;BME280;66426;51.454;7.266;2023-04-01T17:06:23;98597.94;;;9.40;nan
77360;BME280;66426;51.454;7.266;2023-04-01T17:07:35;98596.56;;;9.35;nan
77360;BME280;66426;51.454;7.266;2023-04-01T17:09:02;98597.09;;;9.40;nan
77360;BME280;66426;51.454;7.266;2023-04-01T17:10:28;98602.91;;;9.46;nan
77360;BME280;66426;51.454;7.266;2023-04-01T17:11:36;98602.66;;;9.49;nan
77360;BME280;66426;51.454;7.266;2023-04-01T17:12:43;98603.53;;;9.50;nan
77360;BME280;66426;51.454;7.266;2023-04-01T17:13:52;98605.44;;;9.48;nan
77360;BME280;66426;51.454;7.266;2023-04-01T17:15:05;98609.53;;;9.41;nan
77360;BME280;66426;51.454;7.266;2023-04-01T17:16:27;98612.13;;;9.42;nan
77360;BME280;66426;51.454;7.266;2023-04-01T17:17:43;98609.44;;;9.42;nan
77360;BME280;66426;51.454;7.266;2023-04-01T17:18:50;98613.84;;;9.43;nan
77360;BME280;66426;51.454;7.266;2023-04-01T17:20:09;98610.31;;;9.43;nan
77360;BME280;66426;51.454;7.266;2023-04-01T17:21:16;98617.06;;;9.36;nan
77360;BME280;66426;51.454;7.266;2023-04-01T17:22:27;98616.22;;;9.35;nan
77360;BME280;66426;51.454;7.266;2023-04-01T17:23:31;98615.81;;;9.41;nan
77360;BME280;66426;51.454;7.266;2023-04-01T17:24:47;98626.78;;;9.51;nan
77360;BME280;66426;51.454;7.266;2023-04-01T17:26:00;98618.81;;;9.37;nan
77360;BME280;66426;51.454;7.266;2023-04-01T17:27:17;98625.66;;;9.41;nan
77360;BME280;66426;51.454;7.266;2023-04-01T17:28:32;98627.72;;;9.50;nan
77360;BME280;66426;51.454;7.266;2023-04-01T17:29:44;98631.25;;;9.50;nan
77360;BME280;66426;51.454;7.266;2023-04-01T17:30:50;98635.47;;;9.42;nan
77360;BME280;66426;51.454;7.266;2023-04-01T17:32:03;98633.00;;;9.39;nan
77360;BME280;66426;51.454;7.266;2023-04-01T17:33:30;98632.88;;;9.40;nan
77360;BME280;66426;51.454;7.266;2023-04-01T17:34:45;98636.78;;;9.36;nan
77360;BME280;66426;51.454;7.266;2023-04-01T17:35:56;98640.63;;;9.32;nan
77360;BME280;66426;51.454;7.266;2023-04-01T17:37:18;98640.00;;;9.41;nan
77360;BME280;66426;51.454;7.266;2023-04-01T17:38:35;98649.22;;;9.50;nan
77360;BME280;66426;51.454;7.266;2023-04-01T17:39:54;98637.41;;;9.40;nan
77360;BME280;66426;51.454;7.266;2023-04-01T17:41:03;98648.16;;;9.40;nan
77360;BME280;66426;51.454;7.266;2023-04-01T17:42:11;98637.31;;;9.41;nan
77360;BME280;66426;51.454;7.266;2023-04-01T17:43:20;98651.38;;;9.45;nan
77360;BME280;66426;51.454;7.266;2023-04-01T17:44:32;98648.59;;;9.34;nan
77360;BME280;66426;51.454;7.266;2023-04-01T17:45:42;98651.47;;;9.31;nan
77360;BME280;66426;51.454;7.266;2023-04-01T17:47:00;98651.28;;;9.34;nan
77360;BME280;66426;51.454;7.266;2023-04-01T17:48:10;98658.91;;;9.40;nan
77360;BME280;66426;51.454;7.266;2023-04-01T17:49:24;98662.97;;;9.33;nan
77360;BME280;66426;51.454;7.266;2023-04-01T17:50:35;98656.75;;;9.45;nan
77360;BME280;66426;51.454;7.266;2023-04-01T17:51:49;98652.13;;;9.47;nan
77360;BME280;66426;51.454;7.266;2023-04-01T17:53:02;98657.94;;;9.41;nan
77360;BME280;66426;51.454;7.266;2023-04-01T17:54:20;98661.81;;;9.37;nan
77360;BME280;66426;51.454;7.266;2023-04-01T17:55:35;98663.31;;;9.41;nan
77360;BME280;66426;51.454;7.266;2023-04-01T17:56:53;98662.88;;;9.34;nan
77360;BME280;66426;51.454;7.266;2023-04-01T17:58:00;98669.03;;;9.36;nan
77360;BME280;66426;51.454;7.266;2023-04-01T17:59:11;98676.00;;;9.39;nan
77360;BME280;66426;51.454;7.266;2023-04-01T18:00:25;98673.50;;;9.36;nan
77360;BME280;66426;51.454;7.266;2023-04-01T18:01:35;98681.69;;;9.34;nan
77360;BME280;66426;51.454;7.266;2023-04-01T18:02:47;98675.13;;;9.38;nan
77360;BME280;66426;51.454;7.266;2023-04-01T18:03:59;98679.25;;;9.44;nan
77360;BME280;66426;51.454;7.266;2023-04-01T18:05:24;98687.84;;;9.49;nan
77360;BME280;66426;51.454;7.266;2023-04-01T18:06:34;98685.03;;;9.38;nan
77360;BME280;66426;51.454;7.266;2023-04-01T18:07:52;98680.19;;;9.30;nan
77360;BME280;66426;51.454;7.266;2023-04-01T18:08:58;98690.63;;;9.35;nan
77360;BME280;66426;51.454;7.266;2023-04-01T18:10:17;98697.06;;;9.32;nan
77360;BME280;66426;51.454;7.266;2023-04-01T18:11:25;98691.78;;;9.43;nan
77360;BME280;66426;51.454;7.266;2023-04-01T18:12:38;98691.25;;;9.38;nan
77360;BME280;66426;51.454;7.266;2023-04-01T18:15:21;98695.69;;;9.39;nan
77360;BME280;66426;51.454;7.266;2023-04-01T18:16:41;98698.25;;;9.28;nan
77360;BME280;66426;51.454;7.266;2023-04-01T18:17:54;98700.19;;;9.39;nan
77360;BME280;66426;51.454;7.266;2023-04-01T18:19:07;98710.50;;;9.70;nan
77360;BME280;66426;51.454;7.266;2023-04-01T18:20:28;98704.88;;;10.12;nan
77360;BME280;66426;51.454;7.266;2023-04-01T18:21:40;98702.84;;;10.03;nan
77360;BME280;66426;51.454;7.266;2023-04-01T18:22:47;98711.69;;;9.92;nan
77360;BME280;66426;51.454;7.266;2023-04-01T18:23:51;98712.84;;;10.01;nan
77360;BME280;66426;51.454;7.266;2023-04-01T18:24:56;98703.53;;;9.93;nan
77360;BME280;66426;51.454;7.266;2023-04-01T18:26:06;98713.41;;;9.93;nan
77360;BME280;66426;51.454;7.266;2023-04-01T18:27:15;98720.63;;;9.80;nan
77360;BME280;66426;51.454;7.266;2023-04-01T18:28:22;98717.38;;;10.00;nan
77360;BME280;66426;51.454;7.266;2023-04-01T18:29:32;98722.16;;;9.71;nan
77360;BME280;66426;51.454;7.266;2023-04-01T18:30:36;98726.25;;;9.64;nan
77360;BME280;66426;51.454;7.266;2023-04-01T18:31:43;98723.19;;;9.56;nan
77360;BME280;66426;51.454;7.266;2023-04-01T18:32:50;98724.81;;;9.45;nan
77360;BME280;66426;51.454;7.266;2023-04-01T18:33:58;98725.88;;;9.43;nan
77360;BME280;66426;51.454;7.266;2023-04-01T18:35:16;98729.09;;;9.35;nan
77360;BME280;66426;51.454;7.266;2023-04-01T18:36:27;98731.91;;;9.34;nan
77360;BME280;66426;51.454;7.266;2023-04-01T18:37:36;98739.53;;;9.40;nan
77360;BME280;66426;51.454;7.266;2023-04-01T18:38:45;98736.31;;;9.35;nan
77360;BME280;66426;51.454;7.266;2023-04-01T18:39:52;98735.88;;;9.41;nan
77360;BME280;66426;51.454;7.266;2023-04-01T18:41:10;98746.97;;;9.36;nan
77360;BME280;66426;51.454;7.266;2023-04-01T18:42:19;98741.59;;;9.36;nan
77360;BME280;66426;51.454;7.266;2023-04-01T18:43:31;98744.47;;;9.33;nan
77360;BME280;66426;51.454;7.266;2023-04-01T18:44:44;98745.56;;;9.43;nan
77360;BME280;66426;51.454;7.266;2023-04-01T18:45:51;98740.53;;;9.52;nan
77360;BME280;66426;51.454;7.266;2023-04-01T18:47:00;98745.56;;;9.43;nan
77360;BME280;66426;51.454;7.266;2023-04-01T18:48:13;98751.38;;;9.37;nan
77360;BME280;66426;51.454;7.266;2023-04-01T18:49:21;98751.81;;;9.44;nan
77360;BME280;66426;51.454;7.266;2023-04-01T18:50:29;98757.50;;;9.39;nan
77360;BME280;66426;51.454;7.266;2023-04-01T18:51:38;98755.56;;;9.41;nan
77360;BME280;66426;51.454;7.266;2023-04-01T18:52:42;98764.59;;;9.40;nan
77360;BME280;66426;51.454;7.266;2023-04-01T18:53:48;98761.03;;;9.40;nan
77360;BME280;66426;51.454;7.266;2023-04-01T18:56:36;98769.84;;;9.29;nan
77360;BME280;66426;51.454;7.266;2023-04-01T18:57:41;98769.53;;;9.34;nan
77360;BME280;66426;51.454;7.266;2023-04-01T18:58:48;98769.09;;;9.27;nan
77360;BME280;66426;51.454;7.266;2023-04-01T18:59:53;98776.84;;;9.32;nan
77360;BME280;66426;51.454;7.266;2023-04-01T19:01:06;98770.28;;;9.36;nan
77360;BME280;66426;51.454;7.266;2023-04-01T19:02:20;98769.41;;;9.35;nan
77360;BME280;66426;51.454;7.266;2023-04-01T19:03:31;98777.25;;;9.25;nan
77360;BME280;66426;51.454;7.266;2023-04-01T19:04:37;98768.88;;;9.30;nan
77360;BME280;66426;51.454;7.266;2023-04-01T19:05:42;98776.38;;;9.25;nan
77360;BME280;66426;51.454;7.266;2023-04-01T19:06:48;98774.78;;;9.35;nan
77360;BME280;66426;51.454;7.266;2023-04-01T19:07:52;98774.91;;;9.34;nan
77360;BME280;66426;51.454;7.266;2023-04-01T19:08:54;98779.53;;;9.32;nan
77360;BME280;66426;51.454;7.266;2023-04-01T19:10:00;98774.78;;;9.22;nan
77360;BME280;66426;51.454;7.266;2023-04-01T19:11:07;98784.13;;;9.29;nan
77360;BME280;66426;51.454;7.266;2023-04-01T19:12:23;98780.38;;;9.32;nan
77360;BME280;66426;51.454;7.266;2023-04-01T19:13:30;98783.81;;;9.21;nan
77360;BME280;66426;51.454;7.266;2023-04-01T19:14:51;98784.88;;;9.19;nan
77360;BME280;66426;51.454;7.266;2023-04-01T19:15:59;98782.06;;;9.20;nan
77360;BME280;66426;51.454;7.266;2023-04-01T19:17:10;98786.91;;;9.28;nan
77360;BME280;66426;51.454;7.266;2023-04-01T19:18:44;98792.19;;;9.29;nan
77360;BME280;66426;51.454;7.266;2023-04-01T19:19:51;98789.72;;;9.26;nan
77360;BME280;66426;51.454;7.266;2023-04-01T19:20:59;98787.69;;;9.30;nan
77360;BME280;66426;51.454;7.266;2023-04-01T19:22:14;98791.66;;;9.24;nan
77360;BME280;66426;51.454;7.266;2023-04-01T19:23:45;98789.59;;;9.28;nan
77360;BME280;66426;51.454;7.266;2023-04-01T19:24:53;98807.00;;;9.22;nan
77360;BME280;66426;51.454;7.266;2023-04-01T19:26:00;98804.31;;;9.22;nan
77360;BME280;66426;51.454;7.266;2023-04-01T19:27:11;98800.09;;;9.18;nan
77360;BME280;66426;51.454;7.266;2023-04-01T19:28:26;98808.28;;;9.17;nan
77360;BME280;66426;51.454;7.266;2023-04-01T19:29:43;98805.94;;;9.25;nan
77360;BME280;66426;51.454;7.266;2023-04-01T19:30:52;98802.91;;;9.17;nan
77360;BME280;66426;51.454;7.266;2023-04-01T19:32:03;98806.75;;;9.13;nan
77360;BME280;66426;51.454;7.266;2023-04-01T19:33:19;98808.28;;;9.17;nan
77360;BME280;66426;51.454;7.266;2023-04-01T19:34:28;98813.47;;;9.20;nan
77360;BME280;66426;51.454;7.266;2023-04-01T19:35:39;98811.06;;;9.15;nan
77360;BME280;66426;51.454;7.266;2023-04-01T19:36:48;98813.25;;;9.23;nan
77360;BME280;66426;51.454;7.266;2023-04-01T19:37:55;98804.31;;;9.22;nan
77360;BME280;66426;51.454;7.266;2023-04-01T19:39:03;98806.38;;;9.19;nan
77360;BME280;66426;51.454;7.266;2023-04-01T19:40:23;98810.31;;;9.13;nan
77360;BME280;66426;51.454;7.266;2023-04-01T19:41:36;98810.78;;;9.20;nan
77360;BME280;66426;51.454;7.266;2023-04-01T19:42:48;98810.84;;;9.18;nan
77360;BME280;66426;51.454;7.266;2023-04-01T19:44:00;98819.38;;;9.25;nan
77360;BME280;66426;51.454;7.266;2023-04-01T19:45:19;98813.16;;;9.24;nan
77360;BME280;66426;51.454;7.266;2023-04-01T19:46:29;98822.16;;;9.23;nan
77360;BME280;66426;51.454;7.266;2023-04-01T19:47:42;98812.91;;;9.15;nan
77360;BME280;66426;51.454;7.266;2023-04-01T19:49:01;98820.19;;;9.13;nan
77360;BME280;66426;51.454;7.266;2023-04-01T19:50:14;98814.25;;;9.07;nan
77360;BME280;66426;51.454;7.266;2023-04-01T19:51:24;98835.56;;;9.11;nan
77360;BME280;66426;51.454;7.266;2023-04-01T19:52:31;98833.53;;;9.14;nan
77360;BME280;66426;51.454;7.266;2023-04-01T19:53:37;98845.41;;;9.24;nan
77360;BME280;66426;51.454;7.266;2023-04-01T19:54:45;98844.72;;;9.21;nan
77360;BME280;66426;51.454;7.266;2023-04-01T19:55:56;98846.47;;;9.22;nan
77360;BME280;66426;51.454;7.266;2023-04-01T19:57:09;98855.81;;;9.16;nan
77360;BME280;66426;51.454;7.266;2023-04-01T19:58:16;98859.91;;;9.22;nan
77360;BME280;66426;51.454;7.266;2023-04-01T19:59:27;98855.19;;;9.25;nan
77360;BME280;66426;51.454;7.266;2023-04-01T20:00:35;98861.31;;;9.27;nan
77360;BME280;66426;51.454;7.266;2023-04-01T20:01:41;98864.47;;;9.34;nan
77360;BME280;66426;51.454;7.266;2023-04-01T20:02:58;98868.31;;;9.30;nan
77360;BME280;66426;51.454;7.266;2023-04-01T20:04:03;98866.22;;;9.21;nan
77360;BME280;66426;51.454;7.266;2023-04-01T20:05:28;98871.41;;;9.51;nan
77360;BME280;66426;51.454;7.266;2023-04-01T20:06:35;98873.84;;;9.41;nan
77360;BME280;66426;51.454;7.266;2023-04-01T20:07:41;98874.03;;;9.38;nan
77360;BME280;66426;51.454;7.266;2023-04-01T20:08:53;98875.81;;;9.52;nan
77360;BME280;66426;51.454;7.266;2023-04-01T20:09:58;98878.34;;;9.41;nan
77360;BME280;66426;51.454;7.266;2023-04-01T20:11:27;98883.53;;;9.17;nan
77360;BME280;66426;51.454;7.266;2023-04-01T20:12:41;98882.34;;;8.94;nan
77360;BME280;66426;51.454;7.266;2023-04-01T20:13:50;98891.47;;;8.91;nan
77360;BME280;66426;51.454;7.266;2023-04-01T20:14:57;98889.34;;;8.82;nan
77360;BME280;66426;51.454;7.266;2023-04-01T20:16:01;98897.50;;;8.80;nan
77360;BME280;66426;51.454;7.266;2023-04-01T20:17:22;98895.28;;;8.87;nan
77360;BME280;66426;51.454;7.266;2023-04-01T20:18:34;98898.13;;;8.98;nan
77360;BME280;66426;51.454;7.266;2023-04-01T20:19:40;98903.34;;;8.87;nan
77360;BME280;66426;51.454;7.266;2023-04-01T20:20:53;98904.69;;;8.66;nan
77360;BME280;66426;51.454;7.266;2023-04-01T20:21:58;98907.66;;;8.61;nan
77360;BME280;66426;51.454;7.266;2023-04-01T20:23:25;98907.78;;;8.74;nan
77360;BME280;66426;51.454;7.266;2023-04-01T20:24:31;98909.28;;;8.78;nan
77360;BME280;66426;51.454;7.266;2023-04-01T20:25:40;98911.91;;;8.79;nan
77360;BME280;66426;51.454;7.266;2023-04-01T20:26:47;98910.44;;;8.88;nan
77360;BME280;66426;51.454;7.266;2023-04-01T20:27:54;98919.25;;;8.90;nan
77360;BME280;66426;51.454;7.266;2023-04-01T20:29:12;98918.91;;;8.82;nan
77360;BME280;66426;51.454;7.266;2023-04-01T20:30:42;98919.47;;;8.73;nan
77360;BME280;66426;51.454;7.266;2023-04-01T20:31:54;98927.34;;;8.61;nan
77360;BME280;66426;51.454;7.266;2023-04-01T20:33:09;98923.78;;;8.61;nan
77360;BME280;66426;51.454;7.266;2023-04-01T20:34:24;98932.53;;;8.79;nan
77360;BME280;66426;51.454;7.266;2023-04-01T20:35:39;98927.59;;;8.85;nan
77360;BME280;66426;51.454;7.266;2023-04-01T20:36:56;98934.44;;;8.77;nan
77360;BME280;66426;51.454;7.266;2023-04-01T20:38:13;98939.25;;;8.72;nan
77360;BME280;66426;51.454;7.266;2023-04-01T20:39:34;98937.31;;;8.74;nan
77360;BME280;66426;51.454;7.266;2023-04-01T20:40:40;98939.22;;;8.57;nan
77360;BME280;66426;51.454;7.266;2023-04-01T20:41:53;98936.16;;;8.49;nan
77360;BME280;66426;51.454;7.266;2023-04-01T20:43:33;98941.63;;;8.62;nan
77360;BME280;66426;51.454;7.266;2023-04-01T20:44:44;98936.63;;;8.70;nan
77360;BME280;66426;51.454;7.266;2023-04-01T20:45:56;98940.66;;;8.77;nan
77360;BME280;66426;51.454;7.266;2023-04-01T20:47:04;98945.06;;;8.78;nan
77360;BME280;66426;51.454;7.266;2023-04-01T20:48:30;98943.16;;;8.66;nan
77360;BME280;66426;51.454;7.266;2023-04-01T20:49:40;98948.16;;;8.72;nan
77360;BME280;66426;51.454;7.266;2023-04-01T20:50:48;98951.19;;;8.66;nan
77360;BME280;66426;51.454;7.266;2023-04-01T20:51:54;98951.50;;;8.61;nan
77360;BME280;66426;51.454;7.266;2023-04-01T20:53:04;98952.84;;;8.54;nan
77360;BME280;66426;51.454;7.266;2023-04-01T20:54:21;98955.13;;;8.46;nan
77360;BME280;66426;51.454;7.266;2023-04-01T20:55:53;98957.63;;;8.49;nan
77360;BME280;66426;51.454;7.266;2023-04-01T20:57:04;98959.06;;;8.55;nan
77360;BME280;66426;51.454;7.266;2023-04-01T20:58:13;98964.53;;;8.53;nan
77360;BME280;66426;51.454;7.266;2023-04-01T20:59:28;98964.34;;;8.42;nan
77360;BME280;66426;51.454;7.266;2023-04-01T21:00:39;98960.91;;;8.54;nan
77360;BME280;66426;51.454;7.266;2023-04-01T21:01:51;98963.75;;;8.66;nan
77360;BME280;66426;51.454;7.266;2023-04-01T21:03:09;98970.09;;;8.64;nan
77360;BME280;66426;51.454;7.266;2023-04-01T21:04:22;98965.41;;;8.54;nan
77360;BME280;66426;51.454;7.266;2023-04-01T21:07:12;98977.38;;;8.48;nan
77360;BME280;66426;51.454;7.266;2023-04-01T21:08:23;98982.19;;;8.57;nan
77360;BME280;66426;51.454;7.266;2023-04-01T21:09:35;98984.47;;;8.49;nan
77360;BME280;66426;51.454;7.266;2023-04-01T21:10:42;98988.16;;;8.32;nan
77360;BME280;66426;51.454;7.266;2023-04-01T21:11:51;98993.06;;;8.40;nan
77360;BME280;66426;51.454;7.266;2023-04-01T21:12:58;98990.50;;;8.53;nan
77360;BME280;66426;51.454;7.266;2023-04-01T21:14:24;99001.44;;;8.50;nan
77360;BME280;66426;51.454;7.266;2023-04-01T21:15:50;98993.25;;;8.37;nan
77360;BME280;66426;51.454;7.266;2023-04-01T21:17:03;99000.19;;;8.25;nan
77360;BME280;66426;51.454;7.266;2023-04-01T21:18:20;98998.50;;;8.38;nan
77360;BME280;66426;51.454;7.266;2023-04-01T21:19:38;99006.22;;;8.45;nan
77360;BME280;66426;51.454;7.266;2023-04-01T21:20:54;99007.28;;;8.26;nan
77360;BME280;66426;51.454;7.266;2023-04-01T21:22:24;99015.31;;;8.26;nan
77360;BME280;66426;51.454;7.266;2023-04-01T21:23:52;99020.41;;;8.16;nan